createdAt,value
2024-01-22T00:00:24.644Z,4.20
2024-01-22T00:01:24.601Z,4.90
2024-01-22T00:02:24.593Z,6.90
2024-01-22T00:03:24.650Z,18.60
2024-01-22T00:04:24.573Z,17.60
2024-01-22T00:05:24.696Z,15.50
2024-01-22T00:06:24.638Z,14.60
2024-01-22T00:07:24.517Z,10.50
2024-01-22T00:08:24.512Z,9.00
2024-01-22T00:09:24.516Z,11.90
2024-01-22T00:10:24.510Z,17.60
2024-01-22T00:11:24.464Z,22.80
2024-01-22T00:12:24.458Z,18.60
2024-01-22T00:13:24.456Z,26.00
2024-01-22T00:14:24.448Z,12.40
2024-01-22T00:15:24.467Z,13.90
2024-01-22T00:16:24.446Z,16.90
2024-01-22T00:17:24.463Z,12.20
2024-01-22T00:18:25.271Z,12.40
2024-01-22T00:19:24.674Z,6.90
2024-01-22T00:20:24.408Z,12.20
2024-01-22T00:21:24.401Z,14.30
2024-01-22T00:22:24.362Z,8.10
2024-01-22T00:23:24.336Z,9.10
2024-01-22T00:24:24.340Z,11.20
2024-01-22T00:25:24.309Z,19.00
2024-01-22T00:26:24.297Z,10.70
2024-01-22T00:27:24.339Z,14.50
2024-01-22T00:28:24.290Z,12.40
2024-01-22T00:29:24.262Z,18.10
2024-01-22T00:30:24.295Z,6.60
2024-01-22T00:31:26.209Z,11.90
2024-01-22T00:32:24.270Z,9.80
2024-01-22T00:33:24.299Z,12.60
2024-01-22T00:34:24.228Z,13.20
2024-01-22T00:35:24.190Z,15.50
2024-01-22T00:36:24.210Z,15.40
2024-01-22T00:37:24.165Z,15.70
2024-01-22T00:38:24.142Z,16.40
2024-01-22T00:39:24.156Z,16.50
2024-01-22T00:40:24.141Z,15.40
2024-01-22T00:41:24.169Z,16.90
2024-01-22T00:42:24.097Z,12.50
2024-01-22T00:43:24.089Z,11.80
2024-01-22T00:44:24.077Z,12.90
2024-01-22T00:45:24.074Z,11.40
2024-01-22T00:46:24.074Z,10.90
2024-01-22T00:47:24.078Z,10.20
2024-01-22T00:48:24.122Z,9.00
2024-01-22T00:49:24.200Z,9.60
2024-01-22T00:50:24.020Z,8.20
2024-01-22T00:51:24.064Z,5.70
2024-01-22T00:52:23.983Z,12.50
2024-01-22T00:53:23.969Z,9.90
2024-01-22T00:54:23.940Z,7.50
2024-01-22T00:55:23.936Z,7.50
2024-01-22T00:56:23.927Z,7.20
2024-01-22T00:57:23.940Z,11.20
2024-01-22T00:58:23.894Z,7.30
2024-01-22T00:59:23.884Z,6.80
2024-01-22T01:00:23.922Z,4.10
2024-01-22T01:01:23.876Z,5.30
2024-01-22T01:02:23.918Z,4.20
2024-01-22T01:03:23.959Z,5.10
2024-01-22T01:04:23.882Z,3.20
2024-01-22T01:05:23.829Z,3.90
2024-01-22T01:06:23.829Z,6.00
2024-01-22T01:07:23.777Z,3.10
2024-01-22T01:08:23.781Z,3.70
2024-01-22T01:09:23.811Z,3.90
2024-01-22T01:10:23.774Z,3.90
2024-01-22T01:11:23.764Z,2.90
2024-01-22T01:12:23.739Z,4.90
2024-01-22T01:13:23.737Z,5.00
2024-01-22T01:14:23.701Z,4.00
2024-01-22T01:15:23.692Z,4.20
2024-01-22T01:16:23.694Z,4.60
2024-01-22T01:17:23.689Z,3.90
2024-01-22T01:18:23.740Z,3.70
2024-01-22T01:19:23.714Z,4.70
2024-01-22T01:20:23.621Z,4.20
2024-01-22T01:21:23.640Z,4.00
2024-01-22T01:22:23.607Z,3.80
2024-01-22T01:23:23.591Z,4.00
2024-01-22T01:24:23.578Z,5.00
2024-01-22T01:25:23.586Z,4.70
2024-01-22T01:26:23.552Z,3.10
2024-01-22T01:27:23.596Z,5.60
2024-01-22T01:28:23.578Z,4.10
2024-01-22T01:29:23.513Z,4.20
2024-01-22T01:30:23.492Z,5.60
2024-01-22T01:31:23.476Z,3.20
2024-01-22T01:32:23.522Z,4.40
2024-01-22T01:33:23.627Z,3.60
2024-01-22T01:34:23.532Z,2.50
2024-01-22T01:35:23.426Z,4.20
2024-01-22T01:37:23.405Z,3.30
2024-01-22T01:38:23.397Z,4.00
2024-01-22T01:39:23.391Z,2.70
2024-01-22T01:40:23.391Z,3.00
2024-01-22T01:41:23.387Z,5.30
2024-01-22T01:42:23.371Z,5.00
2024-01-22T01:43:23.330Z,5.40
2024-01-22T01:44:23.357Z,3.70
2024-01-22T01:45:23.358Z,6.00
2024-01-22T01:46:23.292Z,3.90
2024-01-22T01:47:23.358Z,4.70
2024-01-22T01:48:23.467Z,5.40
2024-01-22T01:49:23.349Z,4.30
2024-01-22T01:50:23.276Z,3.30
2024-01-22T01:51:23.231Z,3.70
2024-01-22T01:52:23.220Z,4.30
2024-01-22T01:53:23.224Z,3.60
2024-01-22T01:54:23.214Z,4.00
2024-01-22T01:55:23.201Z,5.40
2024-01-22T01:56:23.208Z,2.90
2024-01-22T01:57:23.157Z,2.60
2024-01-22T01:58:23.157Z,3.70
2024-01-22T01:59:23.139Z,2.30
2024-01-22T02:00:23.325Z,3.40
2024-01-22T02:01:23.327Z,2.20
2024-01-22T02:02:23.179Z,3.10
2024-01-22T02:03:23.201Z,2.00
2024-01-22T02:04:23.073Z,2.60
2024-01-22T02:05:23.107Z,2.20
2024-01-22T02:06:23.066Z,5.10
2024-01-22T02:07:23.050Z,2.90
2024-01-22T02:08:23.046Z,2.90
2024-01-22T02:09:23.005Z,3.00
2024-01-22T02:10:23.019Z,3.40
2024-01-22T02:11:23.022Z,2.90
2024-01-22T02:12:22.984Z,2.40
2024-01-22T02:13:23.014Z,3.10
2024-01-22T02:14:23.011Z,3.90
2024-01-22T02:15:22.992Z,2.40
2024-01-22T02:16:23.002Z,2.10
2024-01-22T02:17:22.922Z,2.70
2024-01-22T02:18:23.100Z,2.80
2024-01-22T02:19:23.080Z,2.30
2024-01-22T02:20:22.883Z,2.20
2024-01-22T02:21:22.866Z,2.80
2024-01-22T02:22:22.848Z,3.70
2024-01-22T02:23:22.829Z,3.40
2024-01-22T02:24:22.858Z,3.50
2024-01-22T02:25:22.813Z,3.90
2024-01-22T02:26:22.806Z,2.80
2024-01-22T02:27:22.846Z,4.10
2024-01-22T02:28:22.793Z,4.70
2024-01-22T02:29:22.777Z,4.50
2024-01-22T02:30:22.809Z,3.90
2024-01-22T02:31:22.776Z,3.60
2024-01-22T02:32:22.729Z,3.00
2024-01-22T02:33:22.899Z,3.60
2024-01-22T02:34:22.728Z,4.00
2024-01-22T02:35:22.697Z,3.00
2024-01-22T02:36:22.708Z,2.90
2024-01-22T02:37:22.685Z,3.30
2024-01-22T02:38:22.670Z,2.60
2024-01-22T02:39:22.717Z,2.90
2024-01-22T02:40:22.641Z,3.40
2024-01-22T02:41:22.670Z,2.20
2024-01-22T02:42:22.648Z,3.60
2024-01-22T02:43:22.605Z,2.50
2024-01-22T02:44:22.614Z,3.30
2024-01-22T02:45:22.598Z,2.90
2024-01-22T02:46:22.552Z,1.90
2024-01-22T02:47:22.572Z,2.70
2024-01-22T02:48:22.708Z,1.90
2024-01-22T02:49:22.622Z,3.10
2024-01-22T02:50:22.515Z,1.80
2024-01-22T02:51:22.549Z,1.30
2024-01-22T02:52:22.536Z,2.50
2024-01-22T02:53:22.472Z,2.70
2024-01-22T02:54:22.484Z,1.10
2024-01-22T02:55:22.436Z,1.80
2024-01-22T02:56:22.448Z,3.30
2024-01-22T02:57:22.485Z,1.80
2024-01-22T02:58:22.413Z,1.70
2024-01-22T02:59:22.397Z,1.70
2024-01-22T03:00:22.474Z,1.20
2024-01-22T03:01:22.412Z,1.30
2024-01-22T03:02:22.357Z,1.50
2024-01-22T03:03:22.452Z,2.20
2024-01-22T03:04:22.378Z,2.10
2024-01-22T03:05:22.308Z,1.30
2024-01-22T03:06:22.408Z,1.30
2024-01-22T03:07:22.392Z,0.70
2024-01-22T03:08:22.283Z,2.60
2024-01-22T03:09:22.281Z,1.80
2024-01-22T03:10:22.265Z,1.70
2024-01-22T03:11:22.245Z,1.30
2024-01-22T03:12:22.298Z,2.20
2024-01-22T03:13:28.772Z,1.50
2024-01-22T03:14:22.214Z,3.10
2024-01-22T03:15:22.252Z,1.70
2024-01-22T03:16:22.187Z,3.00
2024-01-22T03:17:22.221Z,1.70
2024-01-22T03:18:22.277Z,4.00
2024-01-22T03:19:22.304Z,1.70
2024-01-22T03:20:22.134Z,1.50
2024-01-22T03:21:22.146Z,1.50
2024-01-22T03:22:22.103Z,1.80
2024-01-22T03:23:22.111Z,2.00
2024-01-22T03:24:22.117Z,3.80
2024-01-22T03:25:22.057Z,1.80
2024-01-22T03:26:22.133Z,1.20
2024-01-22T03:27:22.074Z,2.50
2024-01-22T03:28:22.055Z,0.80
2024-01-22T03:29:22.032Z,1.40
2024-01-22T03:30:22.074Z,2.10
2024-01-22T03:31:22.011Z,2.10
2024-01-22T03:32:22.013Z,3.20
2024-01-22T03:33:22.033Z,0.90
2024-01-22T03:34:22.075Z,2.50
2024-01-22T03:35:21.992Z,2.30
2024-01-22T03:36:21.934Z,1.50
2024-01-22T03:37:21.927Z,2.60
2024-01-22T03:38:21.913Z,2.70
2024-01-22T03:39:21.975Z,2.10
2024-01-22T03:40:21.921Z,3.20
2024-01-22T03:41:21.898Z,1.60
2024-01-22T03:42:21.927Z,5.10
2024-01-22T03:43:21.856Z,3.80
2024-01-22T03:44:21.835Z,2.90
2024-01-22T03:45:21.881Z,3.90
2024-01-22T03:46:21.800Z,2.70
2024-01-22T03:47:21.791Z,2.90
2024-01-22T03:48:21.872Z,5.60
2024-01-22T03:49:21.902Z,4.20
2024-01-22T03:50:21.777Z,6.60
2024-01-22T03:51:21.908Z,2.80
2024-01-22T03:52:21.734Z,4.40
2024-01-22T03:53:21.715Z,5.10
2024-01-22T03:54:21.739Z,3.00
2024-01-22T03:55:21.733Z,5.20
2024-01-22T03:56:21.697Z,8.10
2024-01-22T03:57:21.729Z,5.40
2024-01-22T03:58:21.674Z,3.80
2024-01-22T03:59:21.700Z,4.80
2024-01-22T04:00:21.689Z,5.00
2024-01-22T04:01:21.749Z,4.30
2024-01-22T04:02:21.617Z,7.80
2024-01-22T04:03:21.722Z,5.40
2024-01-22T04:04:21.634Z,5.00
2024-01-22T04:05:21.566Z,4.80
2024-01-22T04:06:21.656Z,4.40
2024-01-22T04:07:21.657Z,4.80
2024-01-22T04:08:21.520Z,4.00
2024-01-22T04:09:21.580Z,5.10
2024-01-22T04:10:21.525Z,8.30
2024-01-22T04:11:21.502Z,10.30
2024-01-22T04:12:21.883Z,11.00
2024-01-22T04:13:27.084Z,6.10
2024-01-22T04:14:21.460Z,6.40
2024-01-22T04:15:21.548Z,6.10
2024-01-22T04:16:21.440Z,5.60
2024-01-22T04:17:21.491Z,9.40
2024-01-22T04:18:21.605Z,9.30
2024-01-22T04:19:21.483Z,5.70
2024-01-22T04:20:21.376Z,6.00
2024-01-22T04:21:21.502Z,2.70
2024-01-22T04:22:21.350Z,6.70
2024-01-22T04:23:21.358Z,4.90
2024-01-22T04:24:21.431Z,5.60
2024-01-22T04:25:21.326Z,4.20
2024-01-22T04:26:21.312Z,5.60
2024-01-22T04:27:21.335Z,2.50
2024-01-22T04:28:21.282Z,3.20
2024-01-22T04:29:21.298Z,4.20
2024-01-22T04:30:21.325Z,13.30
2024-01-22T04:31:21.252Z,5.70
2024-01-22T04:32:21.260Z,5.40
2024-01-22T04:33:21.322Z,5.90
2024-01-22T04:34:21.393Z,5.00
2024-01-22T04:35:21.225Z,6.30
2024-01-22T04:36:21.285Z,8.00
2024-01-22T04:37:21.180Z,6.00
2024-01-22T04:38:21.192Z,4.10
2024-01-22T04:39:21.177Z,1.70
2024-01-22T04:40:21.136Z,4.70
2024-01-22T04:41:21.133Z,2.60
2024-01-22T04:42:21.136Z,4.60
2024-01-22T04:43:21.101Z,5.00
2024-01-22T04:44:21.092Z,10.80
2024-01-22T04:45:21.141Z,11.70
2024-01-22T04:46:21.077Z,10.70
2024-01-22T04:47:21.070Z,5.80
2024-01-22T04:48:21.186Z,3.50
2024-01-22T04:49:21.033Z,7.50
2024-01-22T04:50:21.008Z,3.40
2024-01-22T04:51:21.037Z,3.60
2024-01-22T04:52:21.003Z,13.90
2024-01-22T04:53:20.980Z,9.10
2024-01-22T04:54:21.011Z,5.60
2024-01-22T04:55:22.884Z,3.80
2024-01-22T04:56:20.944Z,3.10
2024-01-22T04:57:20.967Z,7.70
2024-01-22T04:58:20.906Z,3.60
2024-01-22T04:59:20.900Z,9.70
2024-01-22T05:00:21.007Z,3.30
2024-01-22T05:01:20.870Z,12.50
2024-01-22T05:02:20.897Z,7.30
2024-01-22T05:03:20.882Z,3.80
2024-01-22T05:04:20.869Z,3.20
2024-01-22T05:05:20.861Z,7.90
2024-01-22T05:06:20.838Z,6.60
2024-01-22T05:07:20.815Z,3.30
2024-01-22T05:08:20.781Z,7.40
2024-01-22T05:09:20.873Z,7.50
2024-01-22T05:10:20.773Z,8.40
2024-01-22T05:11:20.786Z,5.30
2024-01-22T05:12:20.779Z,5.00
2024-01-22T05:13:20.733Z,9.80
2024-01-22T05:14:20.706Z,2.80
2024-01-22T05:15:20.801Z,13.30
2024-01-22T05:16:20.687Z,6.60
2024-01-22T05:17:20.672Z,19.00
2024-01-22T05:18:22.665Z,18.30
2024-01-22T05:19:20.742Z,12.00
2024-01-22T05:20:20.643Z,7.70
2024-01-22T05:21:20.707Z,11.10
2024-01-22T05:22:20.604Z,6.20
2024-01-22T05:23:20.610Z,10.30
2024-01-22T05:24:20.692Z,13.80
2024-01-22T05:25:20.563Z,19.80
2024-01-22T05:26:20.611Z,11.70
2024-01-22T05:27:20.565Z,10.10
2024-01-22T05:28:20.532Z,6.70
2024-01-22T05:29:20.522Z,13.10
2024-01-22T05:30:20.653Z,11.50
2024-01-22T05:31:20.562Z,10.10
2024-01-22T05:32:20.509Z,10.60
2024-01-22T05:33:20.577Z,15.20
2024-01-22T05:34:20.562Z,11.10
2024-01-22T05:35:20.461Z,15.10
2024-01-22T05:36:20.549Z,19.60
2024-01-22T05:37:20.459Z,11.50
2024-01-22T05:38:20.404Z,6.50
2024-01-22T05:39:20.477Z,11.90
2024-01-22T05:40:20.434Z,9.80
2024-01-22T05:41:20.401Z,6.90
2024-01-22T05:42:20.430Z,10.00
2024-01-22T05:43:20.346Z,12.40
2024-01-22T05:44:20.383Z,7.60
2024-01-22T05:45:20.412Z,5.30
2024-01-22T05:46:20.344Z,11.30
2024-01-22T05:47:20.333Z,8.90
2024-01-22T05:48:20.400Z,9.80
2024-01-22T05:49:20.614Z,7.50
2024-01-22T05:50:20.259Z,6.50
2024-01-22T05:51:20.323Z,4.90
2024-01-22T05:52:20.255Z,10.10
2024-01-22T05:53:20.223Z,1.90
2024-01-22T05:54:20.325Z,7.60
2024-01-22T05:55:20.288Z,5.00
2024-01-22T05:56:20.211Z,6.10
2024-01-22T05:57:20.285Z,4.70
2024-01-22T05:58:20.156Z,3.70
2024-01-22T05:59:20.243Z,5.50
2024-01-22T06:00:20.389Z,14.20
2024-01-22T06:01:20.203Z,6.90
2024-01-22T06:02:20.107Z,11.90
2024-01-22T06:03:20.177Z,6.60
2024-01-22T06:04:20.161Z,9.70
2024-01-22T06:05:20.169Z,14.00
2024-01-22T06:06:20.121Z,15.30
2024-01-22T06:07:20.110Z,14.40
2024-01-22T06:08:20.040Z,16.30
2024-01-22T06:09:20.041Z,19.30
2024-01-22T06:10:20.074Z,15.10
2024-01-22T06:11:20.011Z,20.60
2024-01-22T06:12:20.049Z,6.60
2024-01-22T06:13:19.979Z,12.30
2024-01-22T06:14:19.965Z,14.30
2024-01-22T06:15:19.986Z,21.60
2024-01-22T06:16:19.926Z,16.40
2024-01-22T06:17:20.070Z,15.60
2024-01-22T06:18:20.252Z,8.70
2024-01-22T06:19:20.104Z,20.30
2024-01-22T06:20:19.947Z,33.20
2024-01-22T06:21:19.916Z,17.40
2024-01-22T06:22:19.869Z,10.30
2024-01-22T06:23:19.848Z,17.00
2024-01-22T06:24:19.993Z,15.10
2024-01-22T06:25:19.929Z,15.00
2024-01-22T06:26:19.909Z,11.50
2024-01-22T06:27:19.902Z,8.20
2024-01-22T06:28:20.128Z,11.70
2024-01-22T06:29:19.840Z,15.50
2024-01-22T06:30:19.845Z,12.10
2024-01-22T06:31:19.751Z,12.70
2024-01-22T06:32:19.751Z,12.60
2024-01-22T06:33:19.827Z,13.70
2024-01-22T06:34:19.941Z,12.50
2024-01-22T06:35:19.700Z,18.80
2024-01-22T06:36:19.814Z,17.40
2024-01-22T06:37:19.677Z,18.80
2024-01-22T06:38:19.692Z,25.70
2024-01-22T06:39:19.735Z,13.10
2024-01-22T06:40:19.659Z,22.10
2024-01-22T06:41:19.608Z,50.10
2024-01-22T06:42:27.503Z,2.90
2024-01-22T06:43:19.596Z,9.90
2024-01-22T06:44:19.567Z,23.20
2024-01-22T06:45:19.682Z,7.60
2024-01-22T06:46:19.558Z,12.10
2024-01-22T06:47:19.541Z,8.70
2024-01-22T06:48:19.675Z,10.90
2024-01-22T06:49:19.688Z,9.20
2024-01-22T06:50:19.549Z,7.20
2024-01-22T06:51:27.163Z,10.20
2024-01-22T06:52:19.488Z,7.90
2024-01-22T06:53:19.449Z,25.30
2024-01-22T06:54:20.865Z,9.40
2024-01-22T06:55:19.438Z,14.80
2024-01-22T06:56:19.412Z,12.10
2024-01-22T06:57:19.518Z,14.90
2024-01-22T06:58:19.385Z,25.10
2024-01-22T06:59:19.426Z,13.70
2024-01-22T07:00:19.438Z,7.70
2024-01-22T07:01:19.432Z,8.00
2024-01-22T07:02:19.340Z,4.70
2024-01-22T07:03:19.383Z,5.50
2024-01-22T07:04:19.332Z,6.60
2024-01-22T07:05:19.440Z,9.40
2024-01-22T07:06:22.103Z,8.20
2024-01-22T07:07:19.296Z,9.10
2024-01-22T07:08:19.317Z,7.10
2024-01-22T07:09:19.289Z,6.00
2024-01-22T07:10:19.247Z,2.40
2024-01-22T07:11:19.233Z,3.80
2024-01-22T07:12:19.261Z,3.80
2024-01-22T07:13:19.230Z,5.90
2024-01-22T07:14:19.178Z,6.30
2024-01-22T07:15:19.304Z,4.10
2024-01-22T07:16:20.022Z,7.50
2024-01-22T07:17:19.179Z,6.60
2024-01-22T07:18:19.323Z,4.20
2024-01-22T07:19:19.405Z,5.10
2024-01-22T07:20:19.165Z,7.10
2024-01-22T07:21:19.230Z,4.80
2024-01-22T07:22:19.092Z,9.00
2024-01-22T07:23:19.071Z,6.00
2024-01-22T07:24:19.084Z,6.60
2024-01-22T07:25:19.170Z,8.00
2024-01-22T07:26:19.036Z,7.90
2024-01-22T07:27:19.116Z,5.10
2024-01-22T07:28:19.017Z,8.10
2024-01-22T07:29:19.008Z,8.10
2024-01-22T07:30:19.067Z,6.90
2024-01-22T07:31:18.981Z,6.00
2024-01-22T07:32:19.112Z,11.30
2024-01-22T07:33:19.061Z,6.80
2024-01-22T07:34:19.077Z,5.00
2024-01-22T07:35:18.930Z,6.90
2024-01-22T07:36:19.140Z,5.20
2024-01-22T07:37:19.081Z,8.10
2024-01-22T07:38:18.977Z,2.70
2024-01-22T07:39:19.024Z,6.20
2024-01-22T07:40:18.866Z,5.50
2024-01-22T07:41:18.857Z,12.00
2024-01-22T07:42:18.957Z,9.10
2024-01-22T07:43:18.847Z,5.50
2024-01-22T07:44:18.907Z,21.50
2024-01-22T07:45:18.949Z,10.20
2024-01-22T07:46:18.805Z,12.80
2024-01-22T07:47:20.144Z,18.50
2024-01-22T07:48:19.040Z,5.80
2024-01-22T07:49:18.839Z,8.30
2024-01-22T07:50:18.885Z,12.70
2024-01-22T07:51:18.791Z,25.50
2024-01-22T07:52:18.713Z,25.30
2024-01-22T07:53:18.712Z,28.70
2024-01-22T07:54:18.726Z,7.20
2024-01-22T07:55:19.353Z,13.40
2024-01-22T07:56:18.660Z,18.50
2024-01-22T07:57:18.714Z,20.90
2024-01-22T07:58:18.662Z,15.80
2024-01-22T07:59:18.641Z,23.30
2024-01-22T08:00:18.637Z,18.80
2024-01-22T08:01:18.632Z,18.00
2024-01-22T08:02:18.598Z,13.40
2024-01-22T08:03:18.662Z,12.50
2024-01-22T08:04:19.533Z,13.30
2024-01-22T08:05:18.547Z,16.10
2024-01-22T08:06:19.296Z,21.70
2024-01-22T08:07:20.691Z,13.90
2024-01-22T08:08:18.517Z,15.70
2024-01-22T08:09:18.532Z,20.50
2024-01-22T08:10:19.708Z,18.30
2024-01-22T08:11:18.498Z,14.20
2024-01-22T08:12:18.586Z,16.80
2024-01-22T08:13:18.460Z,18.80
2024-01-22T08:14:18.454Z,6.90
2024-01-22T08:15:18.520Z,32.10
2024-01-22T08:16:21.368Z,24.10
2024-01-22T08:17:18.534Z,17.90
2024-01-22T08:18:18.579Z,28.50
2024-01-22T08:19:18.585Z,12.60
2024-01-22T08:20:47.880Z,17.70
2024-01-22T08:21:18.443Z,35.20
2024-01-22T08:22:18.416Z,20.60
2024-01-22T08:23:18.479Z,17.40
2024-01-22T08:24:18.420Z,15.30
2024-01-22T08:25:18.433Z,17.50
2024-01-22T08:26:19.933Z,9.70
2024-01-22T08:27:18.323Z,9.90
2024-01-22T08:28:18.341Z,15.80
2024-01-22T08:29:18.320Z,18.20
2024-01-22T08:30:18.329Z,23.00
2024-01-22T08:31:18.253Z,10.90
2024-01-22T08:32:32.918Z,13.10
2024-01-22T08:33:19.206Z,14.30
2024-01-22T08:34:18.469Z,15.60
2024-01-22T08:35:18.559Z,42.20
2024-01-22T08:36:18.239Z,29.90
2024-01-22T08:37:18.178Z,20.30
2024-01-22T08:38:18.145Z,23.80
2024-01-22T08:39:18.220Z,10.70
2024-01-22T08:40:18.197Z,9.30
2024-01-22T08:41:18.094Z,16.20
2024-01-22T08:42:18.116Z,40.50
2024-01-22T08:43:18.073Z,42.50
2024-01-22T08:44:18.150Z,16.40
2024-01-22T08:45:18.079Z,13.30
2024-01-22T08:46:18.084Z,33.70
2024-01-22T08:47:18.049Z,22.90
2024-01-22T08:48:18.120Z,47.00
2024-01-22T08:49:18.025Z,31.50
2024-01-22T08:50:18.022Z,29.20
2024-01-22T08:51:17.978Z,15.60
2024-01-22T08:52:17.945Z,21.40
2024-01-22T08:53:17.945Z,24.30
2024-01-22T08:54:18.008Z,21.90
2024-01-22T08:55:17.910Z,13.20
2024-01-22T08:56:18.092Z,27.80
2024-01-22T08:57:17.937Z,19.80
2024-01-22T08:58:17.871Z,13.90
2024-01-22T08:59:17.868Z,16.40
2024-01-22T09:00:17.901Z,11.40
2024-01-22T09:01:17.900Z,21.10
2024-01-22T09:02:18.012Z,20.60
2024-01-22T09:03:17.923Z,12.00
2024-01-22T09:04:18.522Z,10.60
2024-01-22T09:05:17.865Z,11.40
2024-01-22T09:06:17.875Z,9.50
2024-01-22T09:07:17.790Z,14.70
2024-01-22T09:08:17.794Z,11.30
2024-01-22T09:09:17.886Z,12.70
2024-01-22T09:10:17.789Z,4.30
2024-01-22T09:11:17.793Z,22.10
2024-01-22T09:12:18.080Z,17.30
2024-01-22T09:13:17.757Z,14.60
2024-01-22T09:14:26.299Z,15.80
2024-01-22T09:15:17.952Z,6.30
2024-01-22T09:16:17.780Z,25.30
2024-01-22T09:17:17.696Z,15.90
2024-01-22T09:18:17.689Z,13.30
2024-01-22T09:19:17.720Z,20.40
2024-01-22T09:20:17.899Z,14.90
2024-01-22T09:21:17.653Z,16.50
2024-01-22T09:22:17.620Z,20.40
2024-01-22T09:23:17.592Z,21.30
2024-01-22T09:24:18.724Z,16.60
2024-01-22T09:25:18.073Z,19.80
2024-01-22T09:26:17.533Z,13.70
2024-01-22T09:27:17.597Z,19.60
2024-01-22T09:28:17.576Z,16.60
2024-01-22T09:29:17.559Z,11.60
2024-01-22T09:30:19.676Z,23.00
2024-01-22T09:31:17.505Z,14.60
2024-01-22T09:32:17.487Z,20.00
2024-01-22T09:33:17.659Z,27.20
2024-01-22T09:34:17.589Z,23.80
2024-01-22T09:35:17.516Z,26.00
2024-01-22T09:36:18.634Z,17.40
2024-01-22T09:37:17.647Z,23.90
2024-01-22T09:38:17.465Z,17.50
2024-01-22T09:39:17.452Z,23.20
2024-01-22T09:40:22.522Z,26.10
2024-01-22T09:41:17.419Z,26.20
2024-01-22T09:42:19.255Z,12.00
2024-01-22T09:43:17.437Z,32.50
2024-01-22T09:44:17.452Z,22.20
2024-01-22T09:45:17.514Z,30.00
2024-01-22T09:46:17.413Z,19.50
2024-01-22T09:47:17.295Z,20.10
2024-01-22T09:48:17.416Z,15.00
2024-01-22T09:49:17.360Z,16.10
2024-01-22T09:50:17.275Z,9.60
2024-01-22T09:51:17.255Z,13.50
2024-01-22T09:52:17.413Z,13.60
2024-01-22T09:53:17.244Z,23.40
2024-01-22T09:54:18.602Z,15.50
2024-01-22T09:55:17.167Z,16.70
2024-01-22T09:56:17.202Z,26.50
2024-01-22T09:57:17.149Z,23.30
2024-01-22T09:58:17.153Z,18.80
2024-01-22T09:59:17.161Z,31.20
2024-01-22T10:00:17.273Z,15.20
2024-01-22T10:01:17.153Z,9.90
2024-01-22T10:02:18.004Z,16.20
2024-01-22T10:03:17.170Z,14.80
2024-01-22T10:04:17.135Z,28.50
2024-01-22T10:05:17.032Z,26.80
2024-01-22T10:06:17.131Z,18.60
2024-01-22T10:07:17.074Z,17.00
2024-01-22T10:08:17.047Z,15.20
2024-01-22T10:09:17.063Z,18.70
2024-01-22T10:10:19.722Z,14.40
2024-01-22T10:11:16.984Z,15.00
2024-01-22T10:12:16.998Z,18.60
2024-01-22T10:13:16.944Z,14.20
2024-01-22T10:14:16.924Z,24.00
2024-01-22T10:15:16.985Z,16.50
2024-01-22T10:16:20.270Z,15.90
2024-01-22T10:17:16.903Z,12.00
2024-01-22T10:18:17.110Z,8.20
2024-01-22T10:19:17.021Z,10.40
2024-01-22T10:20:16.899Z,12.10
2024-01-22T10:21:16.839Z,37.70
2024-01-22T10:22:16.829Z,24.00
2024-01-22T10:23:16.810Z,25.70
2024-01-22T10:24:16.856Z,12.20
2024-01-22T10:25:16.798Z,9.80
2024-01-22T10:26:16.800Z,19.60
2024-01-22T10:27:17.002Z,30.00
2024-01-22T10:28:16.782Z,29.30
2024-01-22T10:29:16.747Z,21.10
2024-01-22T10:30:16.818Z,20.90
2024-01-22T10:31:17.171Z,17.70
2024-01-22T10:32:16.788Z,29.30
2024-01-22T10:33:18.534Z,22.20
2024-01-22T10:34:17.177Z,21.40
2024-01-22T10:35:18.313Z,18.60
2024-01-22T10:36:18.247Z,13.70
2024-01-22T10:38:36.363Z,11.00
2024-01-22T10:39:37.341Z,14.00
2024-01-22T10:40:37.482Z,21.90
2024-01-22T10:41:39.494Z,20.80
2024-01-22T10:42:37.979Z,9.00
2024-01-22T10:43:38.296Z,14.40
2024-01-22T10:44:37.261Z,6.60
2024-01-22T10:45:37.541Z,17.40
2024-01-22T10:46:37.133Z,13.60
2024-01-22T10:47:37.442Z,15.50
2024-01-22T10:48:43.840Z,7.30
2024-01-22T10:49:39.562Z,8.00
2024-01-22T10:50:37.866Z,15.40
2024-01-22T10:51:38.862Z,10.80
2024-01-22T10:52:37.926Z,23.00
2024-01-22T10:53:37.075Z,21.00
2024-01-22T10:54:37.105Z,8.70
2024-01-22T10:55:37.199Z,9.90
2024-01-22T10:56:38.406Z,15.10
2024-01-22T10:57:55.556Z,13.80
2024-01-22T10:58:40.300Z,7.40
2024-01-22T10:59:38.889Z,10.90
2024-01-22T11:00:37.239Z,14.40
2024-01-22T11:01:39.381Z,18.70
2024-01-22T11:02:39.718Z,9.10
2024-01-22T11:03:38.841Z,5.10
2024-01-22T11:04:37.121Z,5.90
2024-01-22T11:05:38.157Z,9.70
2024-01-22T11:06:37.302Z,14.30
2024-01-22T11:07:40.401Z,5.10
2024-01-22T11:08:36.916Z,9.30
2024-01-22T11:09:37.852Z,5.00
2024-01-22T11:10:37.046Z,9.80
2024-01-22T11:11:37.807Z,13.90
2024-01-22T11:12:37.347Z,13.40
2024-01-22T11:13:37.269Z,5.30
2024-01-22T11:14:37.010Z,9.90
2024-01-22T11:15:37.697Z,5.20
2024-01-22T11:16:37.648Z,5.60
2024-01-22T11:17:37.527Z,6.70
2024-01-22T11:18:37.581Z,14.00
2024-01-22T11:19:42.713Z,10.30
2024-01-22T11:20:37.474Z,15.30
2024-01-22T11:21:37.724Z,11.40
2024-01-22T11:22:36.983Z,11.20
2024-01-22T11:23:39.767Z,11.20
2024-01-22T11:24:37.781Z,16.10
2024-01-22T11:25:37.551Z,9.90
2024-01-22T11:26:37.116Z,8.00
2024-01-22T11:27:39.404Z,4.80
2024-01-22T11:28:38.054Z,4.80
2024-01-22T11:29:37.399Z,6.20
2024-01-22T11:30:39.318Z,7.10
2024-01-22T11:31:37.560Z,11.50
2024-01-22T11:32:37.117Z,9.90
2024-01-22T11:33:36.869Z,13.00
2024-01-22T11:34:37.005Z,12.30
2024-01-22T11:35:36.727Z,12.50
2024-01-22T11:36:37.052Z,5.20
2024-01-22T11:37:39.232Z,6.10
2024-01-22T11:38:37.056Z,9.70
2024-01-22T11:39:37.781Z,17.10
2024-01-22T11:40:39.057Z,25.30
2024-01-22T11:41:36.801Z,16.00
2024-01-22T11:42:37.000Z,16.20
2024-01-22T11:43:39.357Z,9.90
2024-01-22T11:44:39.318Z,14.60
2024-01-22T11:45:42.072Z,26.00
2024-01-22T11:46:37.667Z,11.50
2024-01-22T11:47:37.850Z,13.60
2024-01-22T11:48:39.402Z,17.00
2024-01-22T11:49:38.321Z,19.20
2024-01-22T11:50:37.048Z,11.30
2024-01-22T11:51:38.741Z,28.60
2024-01-22T11:52:36.887Z,16.30
2024-01-22T11:53:38.895Z,10.90
2024-01-22T11:54:38.255Z,24.20
2024-01-22T11:55:47.299Z,4.10
2024-01-22T11:56:39.231Z,6.30
2024-01-22T11:57:36.780Z,16.60
2024-01-22T11:58:39.988Z,8.00
2024-01-22T11:59:39.789Z,18.00
2024-01-22T12:00:38.540Z,6.60
2024-01-22T12:01:37.778Z,12.60
2024-01-22T12:02:36.636Z,12.00
2024-01-22T12:03:37.088Z,14.70
2024-01-22T12:04:38.335Z,24.00
2024-01-22T12:05:40.272Z,28.40
2024-01-22T12:06:57.906Z,20.50
2024-01-22T12:07:37.800Z,8.80
2024-01-22T12:08:37.742Z,7.20
2024-01-22T12:09:39.141Z,12.20
2024-01-22T12:10:48.098Z,10.20
2024-01-22T12:11:41.599Z,8.60
2024-01-22T12:14:32.353Z,6.70
2024-01-22T12:14:41.029Z,9.60
2024-01-22T12:15:41.313Z,11.50
2024-01-22T12:16:47.537Z,9.50
2024-01-22T12:17:55.772Z,8.30
2024-01-22T12:19:29.304Z,18.10
2024-01-22T12:19:39.422Z,13.40
2024-01-22T12:20:44.592Z,10.40
2024-01-22T12:21:48.357Z,16.00
2024-01-22T12:22:49.505Z,23.30
2024-01-22T12:23:44.658Z,14.40
2024-01-22T12:24:50.708Z,5.60
2024-01-22T12:25:39.914Z,15.70
2024-01-22T12:26:43.034Z,8.40
2024-01-22T12:27:45.268Z,10.20
2024-01-22T12:28:44.038Z,3.40
2024-01-22T12:29:38.792Z,9.40
2024-01-22T12:30:39.178Z,14.30
2024-01-22T12:31:41.588Z,9.80
2024-01-22T12:32:39.090Z,5.00
2024-01-22T12:33:38.285Z,5.00
2024-01-22T12:34:38.917Z,5.60
2024-01-22T12:35:39.892Z,5.30
2024-01-22T12:36:43.460Z,7.50
2024-01-22T12:37:39.101Z,10.40
2024-01-22T12:38:38.824Z,6.00
2024-01-22T12:39:39.957Z,11.60
2024-01-22T12:40:39.417Z,11.20
2024-01-22T12:41:39.791Z,7.00
2024-01-22T12:45:30.283Z,8.80
2024-01-22T12:46:31.455Z,8.00
2024-01-22T12:47:34.017Z,3.70
2024-01-22T12:48:30.580Z,19.50
2024-01-22T12:50:30.459Z,10.50
2024-01-22T12:51:32.183Z,11.70
2024-01-22T12:52:31.710Z,7.80
2024-01-22T12:53:33.653Z,12.00
2024-01-22T12:54:31.802Z,7.70
2024-01-22T12:55:31.805Z,9.10
2024-01-22T12:56:33.023Z,16.10
2024-01-22T12:57:31.872Z,7.20
2024-01-22T12:58:31.395Z,11.60
2024-01-22T12:59:31.624Z,9.40
2024-01-22T13:00:32.022Z,10.60
2024-01-22T13:01:34.419Z,12.90
2024-01-22T13:02:31.992Z,22.10
2024-01-22T13:03:31.409Z,8.30
2024-01-22T13:04:31.369Z,7.70
2024-01-22T13:05:33.525Z,13.40
2024-01-22T13:06:31.771Z,3.50
2024-01-22T13:07:31.962Z,11.60
2024-01-22T13:08:32.455Z,6.00
2024-01-22T13:09:32.645Z,7.60
2024-01-22T13:10:32.631Z,10.40
2024-01-22T13:11:33.366Z,9.00
2024-01-22T13:12:32.061Z,6.00
2024-01-22T13:13:32.391Z,7.00